Create Custom Reports and Graphics: Custom Report

Modesto Jr College

Current Conditions

2/16/19 5:15 PM (-08:00)
Updated Every 15 Minutes
Temp 47.1 °F   1.9
RH 67 %   2
Dew Pt 36.8 °F   1.0
Wind Spd 6.7 mph
Wind Dir W | 270 °
Wind Gust 21.0 mph   9.9
Latest Rain 0.00 In
Daily Rain 0.07 In
Daily Min Temp 41.9 °F   4.2
Daily Max Temp 56.9 °F   2.0

Last 24 Hours

Modesto Jr College

15 Minute Data | America/Los_Angeles
as of 2/16/19 5:19 PM PST
Date Time Temp (°F) RH (%) Dew Pt (°F) Wind Spd (mph) Wind Dir (°) Wind Gust (mph) Latest Rain (In) Daily Rain (In) Daily Min Temp (°F) Daily Max Temp (°F) Day
2/16/19 1715 47.1 67 36.8 6.7 W | 270 21.0 0.00 0.07 41.9 56.9 2/16/19
2/16/19 1700 46.2 75 38.8 11.3 W | 263 20.4 0.03 0.07 41.9 56.9 2/16/19
2/16/19 1645 50.7 61 37.5 13.3 W | 271 29.6 0.00 0.04 41.9 56.9 2/16/19
2/16/19 1630 51.9 58 37.7 8.4 W | 265 17.1 0.00 0.04 41.9 56.9 2/16/19
2/16/19 1615 53.3 56 37.9 10.8 W | 263 18.0 0.00 0.04 41.9 56.9 2/16/19
2/16/19 1600 54.5 55 38.9 9.6 W | 266 19.7 0.00 0.04 41.9 56.9 2/16/19
2/16/19 1545 54.6 57 39.8 8.4 W | 267 16.9 0.00 0.04 41.9 56.9 2/16/19
2/16/19 1530 51.8 62 39.4 8.1 W | 264 16.7 0.00 0.04 41.9 56.9 2/16/19
2/16/19 1515 53.2 60 39.5 9.4 W | 265 16.2 0.00 0.04 41.9 56.9 2/16/19
2/16/19 1500 52.7 63 40.4 9.6 WSW | 248 19.7 0.00 0.04 41.9 56.9 2/16/19
2/16/19 1445 51.2 68 41.1 11.0 WSW | 254 19.1 0.00 0.04 41.9 56.9 2/16/19
2/16/19 1430 51.6 68 41.5 10.1 W | 259 24.1 0.02 0.04 41.9 56.9 2/16/19
2/16/19 1415 52.5 62 40.0 2.7 NW | 315 9.2 0.00 0.02 41.9 56.9 2/16/19
2/16/19 1400 53.0 61 39.9 4.4 NW | 318 9.4 0.00 0.02 41.9 56.9 2/16/19
2/16/19 1345 55.1 56 39.8 7.3 W | 272 14.2 0.00 0.02 41.9 56.9 2/16/19
2/16/19 1330 55.6 57 40.6 8.4 WSW | 256 15.1 0.00 0.02 41.9 56.6 2/16/19
2/16/19 1315 55.1 57 40.3 7.2 WSW | 248 14.2 0.00 0.02 41.9 55.4 2/16/19
2/16/19 1300 54.9 57 39.9 6.6 W | 266 13.2 0.00 0.02 41.9 55.4 2/16/19
2/16/19 1245 52.3 64 40.3 6.4 W | 260 12.3 0.00 0.02 41.9 55.3 2/16/19
2/16/19 1230 49.5 73 41.3 8.8 WSW | 255 16.0 0.00 0.02 41.9 55.3 2/16/19
2/16/19 1215 49.5 70 40.2 8.5 WSW | 257 15.8 0.00 0.02 41.9 55.3 2/16/19
2/16/19 1200 50.0 70 40.6 6.5 WNW | 295 13.6 0.00 0.02 41.9 55.3 2/16/19
2/16/19 1145 48.9 75 41.5 6.7 NW | 321 16.0 0.00 0.02 41.9 55.3 2/16/19
2/16/19 1130 52.2 60 38.8 9.3 W | 274 15.6 0.01 0.02 41.9 55.3 2/16/19
2/16/19 1115 53.8 56 38.5 7.4 W | 266 13.4 0.00 0.01 41.9 55.3 2/16/19
2/16/19 1100 52.4 59 38.6 6.9 W | 263 15.3 0.00 0.01 41.9 54.4 2/16/19
2/16/19 1045 52.0 61 39.0 6.9 W | 272 14.2 0.00 0.01 41.9 52.4 2/16/19
2/16/19 1030 51.4 65 40.2 4.4 SW | 231 7.9 0.00 0.01 41.9 52.0 2/16/19
2/16/19 1015 51.6 66 40.4 1.6 S | 176 4.6 0.00 0.01 41.9 52.0 2/16/19
2/16/19 1000 50.6 72 41.8 3.1 S | 172 8.6 0.00 0.01 41.9 51.6 2/16/19
2/16/19 0945 49.4 75 42.0 5.2 SSE | 168 9.6 0.00 0.01 41.9 49.9 2/16/19
2/16/19 0930 48.1 78 41.7 5.5 SE | 146 9.0 0.00 0.01 41.9 48.9 2/16/19
2/16/19 0915 47.0 82 41.7 4.9 SE | 141 8.6 0.00 0.01 41.9 48.2 2/16/19
2/16/19 0900 45.6 86 41.6 5.3 SE | 144 7.9 0.00 0.01 41.9 46.4 2/16/19
2/16/19 0845 44.9 87 41.3 3.8 SE | 135 7.0 0.00 0.01 41.9 45.4 2/16/19
2/16/19 0830 44.4 88 41.0 3.6 SE | 130 6.4 0.00 0.01 41.9 44.9 2/16/19
2/16/19 0815 43.9 88 40.7 3.6 SE | 139 8.6 0.00 0.01 41.9 44.3 2/16/19
2/16/19 0800 43.8 88 40.5 4.6 SE | 138 9.2 0.00 0.01 41.9 44.0 2/16/19
2/16/19 0745 43.5 89 40.4 4.2 SSE | 147 7.9 0.00 0.01 41.9 44.0 2/16/19
2/16/19 0730 43.2 90 40.3 4.0 SE | 140 6.4 0.00 0.01 41.9 44.0 2/16/19
2/16/19 0715 42.9 90 40.2 2.7 SSE | 163 5.0 0.00 0.01 41.9 44.0 2/16/19
2/16/19 0700 42.8 91 40.2 3.6 SSE | 157 6.8 0.00 0.01 41.9 44.0 2/16/19
2/16/19 0645 42.6 91 40.2 4.6 SSE | 152 7.2 0.00 0.01 41.9 44.0 2/16/19
2/16/19 0630 42.5 91 40.1 4.1 SSE | 148 7.5 0.00 0.01 41.9 44.0 2/16/19
2/16/19 0615 42.4 91 40.0 4.4 SE | 140 7.2 0.00 0.01 41.9 44.0 2/16/19
2/16/19 0600 42.4 91 39.9 3.9 SE | 133 7.9 0.00 0.01 41.9 44.0 2/16/19
2/16/19 0545 42.2 90 39.5 3.8 SE | 132 6.8 0.00 0.01 41.9 44.0 2/16/19
2/16/19 0530 42.7 89 39.7 4.4 SE | 124 9.0 0.00 0.01 42.3 44.0 2/16/19
2/16/19 0515 42.9 88 39.7 3.3 SE | 136 5.9 0.00 0.01 42.5 44.0 2/16/19
2/16/19 0500 42.9 87 39.4 2.8 SE | 135 6.4 0.01 0.01 42.5 44.0 2/16/19
2/16/19 0445 42.9 87 39.3 3.3 SE | 144 6.1 0.00 0.00 42.5 44.0 2/16/19
2/16/19 0430 42.9 86 39.2 3.2 SE | 144 5.9 0.00 0.00 42.5 44.0 2/16/19
2/16/19 0415 42.8 86 39.0 3.7 SE | 141 6.1 0.00 0.00 42.5 44.0 2/16/19
2/16/19 0400 42.8 86 38.8 3.8 SE | 141 6.6 0.00 0.00 42.6 44.0 2/16/19
2/16/19 0345 43.0 86 39.0 3.3 SE | 124 7.0 0.00 0.00 42.8 44.0 2/16/19
2/16/19 0330 43.1 85 38.9 3.2 SE | 126 6.4 0.00 0.00 42.9 44.0 2/16/19
2/16/19 0315 43.2 83 38.6 3.7 SE | 128 6.8 0.00 0.00 43.0 44.0 2/16/19
2/16/19 0300 43.3 82 38.2 4.0 SE | 134 6.8 0.00 0.00 43.0 44.0 2/16/19
2/16/19 0245 43.3 82 38.0 3.8 SE | 136 8.8 0.00 0.00 43.0 44.0 2/16/19
2/16/19 0230 43.3 81 38.0 4.1 SE | 135 8.3 0.00 0.00 43.0 44.0 2/16/19
2/16/19 0215 43.4 82 38.2 4.3 SE | 133 8.1 0.00 0.00 43.0 44.0 2/16/19
2/16/19 0200 43.2 84 38.8 3.1 ESE | 109 6.8 0.00 0.00 43.0 44.0 2/16/19
2/16/19 0145 43.2 85 39.1 3.9 ESE | 112 7.9 0.00 0.00 43.0 44.0 2/16/19
2/16/19 0130 43.4 85 39.2 4.4 ESE | 122 7.2 0.00 0.00 43.2 44.0 2/16/19
2/16/19 0115 43.4 85 39.2 3.8 SE | 128 7.0 0.00 0.00 43.2 44.0 2/16/19
2/16/19 0100 43.4 86 39.4 3.6 ESE | 120 6.6 0.00 0.00 43.2 44.0 2/16/19
2/16/19 0045 43.5 86 39.4 3.5 SE | 135 8.8 0.00 0.00 43.2 44.0 2/16/19
2/16/19 0030 43.6 86 39.8 4.8 SE | 129 8.6 0.00 0.00 43.3 44.0 2/16/19
2/16/19 0015 43.5 88 40.3 4.4 ESE | 115 8.1 0.00 0.00 43.3 43.9 2/16/19
2/16/19 0000 43.9 87 40.3 2.7 ESE | 110 5.9 0.00 0.11 40.4 58.8 2/15/19
2/15/19 2345 44.3 87 40.6 3.1 ESE | 123 6.8 0.00 0.11 40.4 58.8 2/15/19
2/15/19 2330 44.6 86 40.6 3.3 SE | 124 5.7 0.00 0.11 40.4 58.8 2/15/19
2/15/19 2315 44.7 85 40.6 3.0 ESE | 120 6.4 0.00 0.11 40.4 58.8 2/15/19
2/15/19 2300 44.7 86 40.6 3.4 ESE | 123 5.9 0.00 0.11 40.4 58.8 2/15/19
2/15/19 2245 45.0 86 41.0 3.2 SE | 125 7.2 0.00 0.11 40.4 58.8 2/15/19
2/15/19 2230 44.5 86 40.6 2.9 ESE | 121 5.3 0.00 0.11 40.4 58.8 2/15/19
2/15/19 2215 44.2 86 40.1 2.0 SE | 135 4.4 0.00 0.11 40.4 58.8 2/15/19
2/15/19 2200 44.0 85 39.8 1.4 SE | 124 4.8 0.00 0.11 40.4 58.8 2/15/19
2/15/19 2145 44.1 85 39.8 2.9 SE | 132 4.6 0.00 0.11 40.4 58.8 2/15/19
2/15/19 2130 43.3 87 39.6 2.8 SE | 137 5.0 0.00 0.11 40.4 58.8 2/15/19
2/15/19 2115 41.5 86 37.7 1.0 SSE | 150 2.6 0.00 0.11 40.4 58.8 2/15/19
2/15/19 2100 42.4 87 38.8 1.6 S | 177 3.1 0.00 0.11 40.4 58.8 2/15/19
2/15/19 2045 42.9 84 38.6 1.3 ESE | 104 2.6 0.00 0.11 40.4 58.8 2/15/19
2/15/19 2030 41.9 88 38.5 2.4 SSE | 152 3.5 0.00 0.11 40.4 58.8 2/15/19
2/15/19 2015 42.4 83 37.7 1.8 E | 92 3.5 0.00 0.11 40.4 58.8 2/15/19
2/15/19 2000 42.8 84 38.2 1.6 ENE | 72 3.1 0.00 0.11 42.1 58.8 2/15/19
2/15/19 1945 43.3 82 38.3 1.3 SE | 140 2.6 0.00 0.11 42.8 58.8 2/15/19
2/15/19 1930 44.2 81 38.8 1.5 WSW | 239 2.6 0.00 0.11 43.5 58.8 2/15/19
2/15/19 1915 44.9 79 38.7 1.7 WSW | 247 2.6 0.00 0.11 44.6 58.8 2/15/19
2/15/19 1900 45.2 78 38.6 0.9 W | 271 2.8 0.00 0.11 44.9 58.8 2/15/19
2/15/19 1845 45.4 77 38.5 2.2 NE | 35 3.5 0.00 0.11 44.9 58.8 2/15/19
2/15/19 1830 45.7 73 37.7 0.1 SE | 130 1.1 0.00 0.11 45.5 58.8 2/15/19
2/15/19 1815 45.9 72 37.6 2.1 NW | 305 4.8 0.00 0.11 45.6 58.8 2/15/19
2/15/19 1800 46.5 70 37.3 3.8 W | 270 6.4 0.00 0.11 46.0 58.8 2/15/19
2/15/19 1745 47.8 68 37.7 4.6 W | 266 7.7 0.00 0.11 46.1 58.8 2/15/19
2/15/19 1730 48.9 65 37.6 5.6 WNW | 282 12.5 0.00 0.11 46.1 58.8 2/15/19
2/15/19 1715 49.0 65 37.9 5.2 W | 278 11.2 0.00 0.11 46.1 58.8 2/15/19

Last 7 Days

Modesto Jr College

Daily Data | America/Los_Angeles
as of 2/16/19 5:19 PM PST
Date Daily ETo (in)
2/15/19 0.05
2/14/19 0.06
2/13/19 0.09
2/12/19 0.04
2/11/19 0.07
2/10/19 0.06
2/9/19 0.07